createdAt,value
2023-02-24T00:00:35.860Z,1007.03
2023-02-24T00:01:35.773Z,1007.07
2023-02-24T00:02:35.834Z,1007.04
2023-02-24T00:03:35.816Z,1007.04
2023-02-24T00:04:35.668Z,1007.01
2023-02-24T00:05:35.652Z,1007.01
2023-02-24T00:06:35.648Z,1006.99
2023-02-24T00:07:35.557Z,1007.04
2023-02-24T00:08:35.519Z,1007.02
2023-02-24T00:09:35.483Z,1006.96
2023-02-24T00:10:35.504Z,1006.94
2023-02-24T00:11:35.403Z,1006.96
2023-02-24T00:12:35.379Z,1006.98
2023-02-24T00:13:35.332Z,1006.93
2023-02-24T00:14:35.310Z,1006.94
2023-02-24T00:15:35.329Z,1006.91
2023-02-24T00:16:35.329Z,1006.93
2023-02-24T00:17:35.198Z,1007.00
2023-02-24T00:18:35.202Z,1006.90
2023-02-24T00:19:35.142Z,1006.93
2023-02-24T00:20:35.112Z,1006.92
2023-02-24T00:21:35.121Z,1006.92
2023-02-24T00:22:35.017Z,1006.93
2023-02-24T00:23:34.995Z,1006.92
2023-02-24T00:24:34.970Z,1006.88
2023-02-24T00:25:34.927Z,1006.91
2023-02-24T00:26:34.901Z,1006.89
2023-02-24T00:27:35.124Z,1006.92
2023-02-24T00:28:34.851Z,1006.87
2023-02-24T00:29:34.784Z,1006.87
2023-02-24T00:30:34.748Z,1006.83
2023-02-24T00:31:34.868Z,1006.84
2023-02-24T00:32:34.856Z,1006.85
2023-02-24T00:33:34.719Z,1006.84
2023-02-24T00:34:34.630Z,1006.80
2023-02-24T00:35:34.587Z,1006.85
2023-02-24T00:36:34.559Z,1006.81
2023-02-24T00:37:34.521Z,1006.78
2023-02-24T00:38:34.477Z,1006.77
2023-02-24T00:39:34.553Z,1006.77
2023-02-24T00:40:34.395Z,1006.76
2023-02-24T00:41:34.365Z,1006.86
2023-02-24T00:42:34.337Z,1006.87
2023-02-24T00:43:34.322Z,1006.93
2023-02-24T00:44:34.259Z,1007.09
2023-02-24T00:45:34.273Z,1007.11
2023-02-24T00:46:34.223Z,1007.00
2023-02-24T00:47:34.154Z,1007.07
2023-02-24T00:48:34.129Z,1007.02
2023-02-24T00:49:34.086Z,1006.95
2023-02-24T00:50:34.076Z,1006.95
2023-02-24T00:51:34.094Z,1007.01
2023-02-24T00:52:33.990Z,1006.97
2023-02-24T00:53:33.960Z,1006.94
2023-02-24T00:54:33.928Z,1006.96
2023-02-24T00:55:33.867Z,1006.93
2023-02-24T00:56:33.844Z,1006.92
2023-02-24T00:57:33.890Z,1006.95
2023-02-24T00:58:33.789Z,1006.94
2023-02-24T00:59:33.722Z,1006.93
2023-02-24T01:00:33.699Z,1006.97
2023-02-24T01:01:33.707Z,1006.99
2023-02-24T01:02:33.639Z,1006.97
2023-02-24T01:03:33.698Z,1006.91
2023-02-24T01:04:33.547Z,1006.95
2023-02-24T01:05:33.520Z,1006.90
2023-02-24T01:06:33.481Z,1006.93
2023-02-24T01:07:33.497Z,1006.91
2023-02-24T01:08:33.415Z,1006.95
2023-02-24T01:09:33.393Z,1006.88
2023-02-24T01:10:33.334Z,1006.88
2023-02-24T01:11:33.373Z,1006.88
2023-02-24T01:12:33.320Z,1006.94
2023-02-24T01:13:33.246Z,1006.97
2023-02-24T01:14:33.190Z,1006.83
2023-02-24T01:15:33.172Z,1006.99
2023-02-24T01:16:33.131Z,1006.84
2023-02-24T01:17:33.140Z,1006.88
2023-02-24T01:18:33.048Z,1006.85
2023-02-24T01:19:33.010Z,1006.87
2023-02-24T01:20:32.991Z,1006.92
2023-02-24T01:21:32.952Z,1006.86
2023-02-24T01:22:32.995Z,1006.90
2023-02-24T01:23:32.872Z,1006.88
2023-02-24T01:24:32.855Z,1006.89
2023-02-24T01:25:32.800Z,1006.89
2023-02-24T01:26:32.788Z,1006.93
2023-02-24T01:27:32.803Z,1006.86
2023-02-24T01:28:32.679Z,1006.90
2023-02-24T01:29:32.644Z,1006.88
2023-02-24T01:30:32.623Z,1006.87
2023-02-24T01:31:32.703Z,1006.91
2023-02-24T01:32:32.634Z,1006.88
2023-02-24T01:33:32.580Z,1006.86
2023-02-24T01:34:32.477Z,1006.83
2023-02-24T01:35:32.442Z,1006.77
2023-02-24T01:36:32.412Z,1006.85
2023-02-24T01:37:32.385Z,1006.73
2023-02-24T01:38:32.329Z,1006.76
2023-02-24T01:39:32.351Z,1006.69
2023-02-24T01:40:32.290Z,1006.70
2023-02-24T01:41:32.216Z,1006.76
2023-02-24T01:42:32.196Z,1006.70
2023-02-24T01:43:32.136Z,1006.69
2023-02-24T01:44:32.132Z,1006.68
2023-02-24T01:45:32.131Z,1006.69
2023-02-24T01:46:32.087Z,1006.65
2023-02-24T01:47:31.998Z,1006.65
2023-02-24T01:48:32.020Z,1006.62
2023-02-24T01:49:31.930Z,1006.67
2023-02-24T01:50:31.892Z,1006.61
2023-02-24T01:51:31.854Z,1006.62
2023-02-24T01:52:31.816Z,1006.61
2023-02-24T01:53:31.860Z,1006.61
2023-02-24T01:54:31.753Z,1006.56
2023-02-24T01:55:31.743Z,1006.55
2023-02-24T01:56:31.700Z,1006.60
2023-02-24T01:57:31.639Z,1006.58
2023-02-24T01:58:31.604Z,1006.54
2023-02-24T01:59:31.641Z,1006.49
2023-02-24T02:00:31.531Z,1006.50
2023-02-24T02:01:31.561Z,1006.45
2023-02-24T02:02:31.538Z,1006.44
2023-02-24T02:03:31.421Z,1006.44
2023-02-24T02:04:31.380Z,1006.46
2023-02-24T02:05:31.422Z,1006.45
2023-02-24T02:06:31.311Z,1006.45
2023-02-24T02:07:31.261Z,1006.41
2023-02-24T02:08:31.239Z,1006.43
2023-02-24T02:09:31.201Z,1006.43
2023-02-24T02:10:31.173Z,1006.44
2023-02-24T02:11:31.201Z,1006.45
2023-02-24T02:12:31.097Z,1006.42
2023-02-24T02:13:31.060Z,1006.41
2023-02-24T02:14:31.019Z,1006.44
2023-02-24T02:15:31.009Z,1006.44
2023-02-24T02:16:31.036Z,1006.40
2023-02-24T02:17:31.010Z,1006.45
2023-02-24T02:18:30.874Z,1006.43
2023-02-24T02:19:30.904Z,1006.41
2023-02-24T02:20:30.905Z,1006.40
2023-02-24T02:21:30.760Z,1006.37
2023-02-24T02:22:30.725Z,1006.34
2023-02-24T02:23:30.686Z,1006.31
2023-02-24T02:24:30.742Z,1006.35
2023-02-24T02:25:30.634Z,1006.29
2023-02-24T02:26:30.582Z,1006.30
2023-02-24T02:27:30.547Z,1006.27
2023-02-24T02:28:30.516Z,1006.29
2023-02-24T02:29:30.478Z,1006.30
2023-02-24T02:30:30.510Z,1006.34
2023-02-24T02:31:30.513Z,1006.32
2023-02-24T02:32:30.452Z,1006.31
2023-02-24T02:33:30.323Z,1006.36
2023-02-24T02:34:30.284Z,1006.37
2023-02-24T02:35:30.270Z,1006.37
2023-02-24T02:36:30.261Z,1006.41
2023-02-24T02:37:30.183Z,1006.30
2023-02-24T02:38:30.142Z,1006.41
2023-02-24T02:39:30.148Z,1006.30
2023-02-24T02:40:30.107Z,1006.36
2023-02-24T02:41:30.106Z,1006.40
2023-02-24T02:42:29.999Z,1006.31
2023-02-24T02:43:29.982Z,1006.34
2023-02-24T02:44:29.921Z,1006.33
2023-02-24T02:45:30.003Z,1006.30
2023-02-24T02:46:29.847Z,1006.36
2023-02-24T02:47:29.890Z,1006.30
2023-02-24T02:48:29.763Z,1006.29
2023-02-24T02:49:29.728Z,1006.31
2023-02-24T02:50:29.697Z,1006.30
2023-02-24T02:51:29.666Z,1006.29
2023-02-24T02:52:29.628Z,1006.29
2023-02-24T02:53:29.643Z,1006.25
2023-02-24T02:54:29.564Z,1006.21
2023-02-24T02:55:29.604Z,1006.22
2023-02-24T02:56:29.480Z,1006.18
2023-02-24T02:57:29.447Z,1006.13
2023-02-24T02:58:29.404Z,1006.12
2023-02-24T02:59:29.373Z,1006.13
2023-02-24T03:00:29.413Z,1006.10
2023-02-24T03:01:29.441Z,1006.14
2023-02-24T03:02:29.255Z,1006.17
2023-02-24T03:03:29.231Z,1006.14
2023-02-24T03:04:29.219Z,1006.16
2023-02-24T03:05:29.214Z,1006.15
2023-02-24T03:06:29.132Z,1006.14
2023-02-24T03:07:29.075Z,1006.15
2023-02-24T03:08:29.033Z,1006.15
2023-02-24T03:09:29.024Z,1006.15
2023-02-24T03:10:29.053Z,1006.17
2023-02-24T03:11:28.996Z,1006.11
2023-02-24T03:12:28.895Z,1006.13
2023-02-24T03:13:28.860Z,1006.14
2023-02-24T03:14:28.856Z,1006.10
2023-02-24T03:15:28.814Z,1006.08
2023-02-24T03:16:28.825Z,1006.09
2023-02-24T03:17:28.874Z,1006.08
2023-02-24T03:18:28.731Z,1006.11
2023-02-24T03:19:28.624Z,1006.06
2023-02-24T03:20:28.607Z,1006.05
2023-02-24T03:21:28.568Z,1006.04
2023-02-24T03:22:28.512Z,1006.07
2023-02-24T03:23:28.536Z,1006.06
2023-02-24T03:24:28.507Z,1005.98
2023-02-24T03:25:28.409Z,1005.97
2023-02-24T03:26:28.385Z,1005.98
2023-02-24T03:27:28.361Z,1005.99
2023-02-24T03:28:28.321Z,1005.99
2023-02-24T03:29:28.345Z,1005.97
2023-02-24T03:30:28.247Z,1006.00
2023-02-24T03:31:28.221Z,1005.95
2023-02-24T03:32:28.238Z,1005.92
2023-02-24T03:33:28.115Z,1005.92
2023-02-24T03:34:28.086Z,1005.90
2023-02-24T03:35:28.121Z,1005.85
2023-02-24T03:36:27.999Z,1005.88
2023-02-24T03:37:27.997Z,1005.91
2023-02-24T03:38:27.927Z,1005.88
2023-02-24T03:39:27.898Z,1005.89
2023-02-24T03:40:27.861Z,1005.86
2023-02-24T03:41:27.884Z,1005.83
2023-02-24T03:42:27.793Z,1005.80
2023-02-24T03:43:27.784Z,1005.81
2023-02-24T03:44:27.705Z,1005.82
2023-02-24T03:45:27.695Z,1005.75
2023-02-24T03:46:27.706Z,1005.78
2023-02-24T03:47:27.685Z,1005.74
2023-02-24T03:48:27.610Z,1005.76
2023-02-24T03:49:27.542Z,1005.68
2023-02-24T03:50:27.523Z,1005.71
2023-02-24T03:51:27.463Z,1005.63
2023-02-24T03:52:27.437Z,1005.64
2023-02-24T03:53:27.463Z,1005.63
2023-02-24T03:54:27.393Z,1005.66
2023-02-24T03:55:27.307Z,1005.70
2023-02-24T03:56:27.338Z,1005.70
2023-02-24T03:57:27.254Z,1005.67
2023-02-24T03:58:27.241Z,1005.66
2023-02-24T03:59:27.172Z,1005.68
2023-02-24T04:00:27.124Z,1005.60
2023-02-24T04:01:27.152Z,1005.61
2023-02-24T04:02:27.147Z,1005.58
2023-02-24T04:03:27.016Z,1005.60
2023-02-24T04:04:26.983Z,1005.57
2023-02-24T04:05:26.972Z,1005.57
2023-02-24T04:06:26.952Z,1005.49
2023-02-24T04:07:26.872Z,1005.54
2023-02-24T04:08:26.845Z,1005.52
2023-02-24T04:09:26.815Z,1005.51
2023-02-24T04:10:26.767Z,1005.51
2023-02-24T04:11:26.723Z,1005.49
2023-02-24T04:12:26.804Z,1005.54
2023-02-24T04:13:26.663Z,1005.55
2023-02-24T04:14:26.627Z,1005.49
2023-02-24T04:15:26.679Z,1005.49
2023-02-24T04:16:26.546Z,1005.52
2023-02-24T04:17:26.543Z,1005.51
2023-02-24T04:18:26.547Z,1005.49
2023-02-24T04:19:26.434Z,1005.47
2023-02-24T04:20:26.396Z,1005.53
2023-02-24T04:21:26.350Z,1005.46
2023-02-24T04:22:26.316Z,1005.47
2023-02-24T04:23:26.304Z,1005.47
2023-02-24T04:24:26.310Z,1005.46
2023-02-24T04:25:26.226Z,1005.43
2023-02-24T04:26:26.173Z,1005.42
2023-02-24T04:27:26.142Z,1005.36
2023-02-24T04:28:26.096Z,1005.39
2023-02-24T04:29:26.155Z,1005.36
2023-02-24T04:30:26.024Z,1005.33
2023-02-24T04:31:26.431Z,1005.29
2023-02-24T04:32:26.134Z,1005.31
2023-02-24T04:33:25.936Z,1005.31
2023-02-24T04:34:25.888Z,1005.27
2023-02-24T04:35:25.917Z,1005.26
2023-02-24T04:36:25.812Z,1005.27
2023-02-24T04:37:25.785Z,1005.28
2023-02-24T04:38:25.799Z,1005.26
2023-02-24T04:39:25.689Z,1005.28
2023-02-24T04:40:25.659Z,1005.28
2023-02-24T04:41:25.678Z,1005.28
2023-02-24T04:42:25.583Z,1005.25
2023-02-24T04:43:25.548Z,1005.23
2023-02-24T04:44:25.508Z,1005.23
2023-02-24T04:45:25.468Z,1005.20
2023-02-24T04:46:25.461Z,1005.16
2023-02-24T04:47:25.458Z,1005.13
2023-02-24T04:48:25.355Z,1005.09
2023-02-24T04:49:25.405Z,1005.11
2023-02-24T04:50:25.288Z,1005.06
2023-02-24T04:51:25.250Z,1005.09
2023-02-24T04:52:25.219Z,1005.08
2023-02-24T04:53:25.180Z,1005.02
2023-02-24T04:54:25.160Z,1005.05
2023-02-24T04:55:25.162Z,1005.04
2023-02-24T04:56:25.075Z,1005.04
2023-02-24T04:57:25.027Z,1005.01
2023-02-24T04:58:25.007Z,1005.01
2023-02-24T04:59:24.988Z,1005.02
2023-02-24T05:00:24.922Z,1004.98
2023-02-24T05:01:24.943Z,1004.92
2023-02-24T05:02:24.845Z,1004.97
2023-02-24T05:03:24.836Z,1004.91
2023-02-24T05:04:24.804Z,1004.96
2023-02-24T05:05:24.744Z,1004.94
2023-02-24T05:06:24.707Z,1004.93
2023-02-24T05:07:24.719Z,1004.91
2023-02-24T05:08:24.647Z,1004.94
2023-02-24T05:09:24.589Z,1004.90
2023-02-24T05:10:24.557Z,1004.91
2023-02-24T05:11:24.517Z,1004.93
2023-02-24T05:12:24.483Z,1004.91
2023-02-24T05:13:24.500Z,1004.89
2023-02-24T05:14:24.409Z,1004.88
2023-02-24T05:15:24.369Z,1004.87
2023-02-24T05:16:24.475Z,1004.86
2023-02-24T05:17:24.304Z,1004.83
2023-02-24T05:18:24.262Z,1004.82
2023-02-24T05:19:24.279Z,1004.79
2023-02-24T05:20:24.202Z,1004.83
2023-02-24T05:21:24.213Z,1004.81
2023-02-24T05:22:24.125Z,1004.80
2023-02-24T05:23:24.070Z,1004.82
2023-02-24T05:24:24.047Z,1004.74
2023-02-24T05:25:24.004Z,1004.77
2023-02-24T05:26:24.033Z,1004.77
2023-02-24T05:27:23.931Z,1004.76
2023-02-24T05:28:23.898Z,1004.75
2023-02-24T05:29:23.872Z,1004.76
2023-02-24T05:30:23.941Z,1004.74
2023-02-24T05:31:24.383Z,1004.72
2023-02-24T05:32:23.894Z,1004.73
2023-02-24T05:33:23.712Z,1004.70
2023-02-24T05:34:23.672Z,1004.68
2023-02-24T05:35:23.641Z,1004.68
2023-02-24T05:36:23.597Z,1004.66
2023-02-24T05:37:23.628Z,1004.59
2023-02-24T05:38:23.527Z,1004.63
2023-02-24T05:39:23.494Z,1004.60
2023-02-24T05:40:23.450Z,1004.59
2023-02-24T05:41:23.591Z,1004.60
2023-02-24T05:42:23.380Z,1004.54
2023-02-24T05:43:23.403Z,1004.54
2023-02-24T05:44:23.325Z,1004.53
2023-02-24T05:45:23.277Z,1004.53
2023-02-24T05:46:23.293Z,1004.52
2023-02-24T05:47:23.222Z,1004.49
2023-02-24T05:48:23.155Z,1004.44
2023-02-24T05:49:23.270Z,1004.50
2023-02-24T05:50:23.083Z,1004.46
2023-02-24T05:51:23.292Z,1004.45
2023-02-24T05:52:23.067Z,1004.43
2023-02-24T05:53:22.977Z,1004.44
2023-02-24T05:54:22.936Z,1004.41
2023-02-24T05:55:22.891Z,1004.39
2023-02-24T05:56:22.860Z,1004.41
2023-02-24T05:57:22.894Z,1004.39
2023-02-24T05:58:22.791Z,1004.41
2023-02-24T05:59:22.749Z,1004.35
2023-02-24T06:00:22.718Z,1004.42
2023-02-24T06:01:22.826Z,1004.40
2023-02-24T06:02:22.671Z,1004.37
2023-02-24T06:03:22.693Z,1004.37
2023-02-24T06:04:22.572Z,1004.39
2023-02-24T06:05:22.523Z,1004.39
2023-02-24T06:06:22.497Z,1004.39
2023-02-24T06:07:22.457Z,1004.41
2023-02-24T06:08:22.411Z,1004.37
2023-02-24T06:09:22.442Z,1004.40
2023-02-24T06:10:22.347Z,1004.36
2023-02-24T06:11:22.694Z,1004.32
2023-02-24T06:12:22.273Z,1004.39
2023-02-24T06:13:22.234Z,1004.30
2023-02-24T06:14:22.287Z,1004.33
2023-02-24T06:15:22.158Z,1004.31
2023-02-24T06:16:22.209Z,1004.28
2023-02-24T06:17:22.105Z,1004.36
2023-02-24T06:18:22.051Z,1004.28
2023-02-24T06:19:22.029Z,1004.28
2023-02-24T06:20:22.018Z,1004.28
2023-02-24T06:21:22.205Z,1004.27
2023-02-24T06:22:21.912Z,1004.22
2023-02-24T06:23:21.864Z,1004.19
2023-02-24T06:24:21.833Z,1004.17
2023-02-24T06:25:21.859Z,1004.16
2023-02-24T06:26:21.747Z,1004.19
2023-02-24T06:27:21.932Z,1004.16
2023-02-24T06:28:21.689Z,1004.12
2023-02-24T06:29:21.646Z,1004.12
2023-02-24T06:30:21.686Z,1004.15
2023-02-24T06:31:22.007Z,1004.15
2023-02-24T06:32:21.607Z,1004.18
2023-02-24T06:33:21.499Z,1004.11
2023-02-24T06:34:21.490Z,1004.16
2023-02-24T06:35:21.434Z,1004.08
2023-02-24T06:36:21.396Z,1004.09
2023-02-24T06:37:21.397Z,1004.09
2023-02-24T06:38:21.321Z,1004.07
2023-02-24T06:39:21.339Z,1004.08
2023-02-24T06:40:21.244Z,1004.03
2023-02-24T06:41:21.468Z,1004.01
2023-02-24T06:42:21.176Z,1003.98
2023-02-24T06:43:21.138Z,1004.00
2023-02-24T06:44:21.168Z,1004.00
2023-02-24T06:45:21.061Z,1003.96
2023-02-24T06:46:21.060Z,1003.95
2023-02-24T06:47:20.982Z,1003.92
2023-02-24T06:48:20.949Z,1003.88
2023-02-24T06:49:20.919Z,1003.90
2023-02-24T06:50:20.936Z,1003.90
2023-02-24T06:51:21.116Z,1003.94
2023-02-24T06:52:20.813Z,1003.92
2023-02-24T06:53:20.764Z,1003.87
2023-02-24T06:54:20.735Z,1003.91
2023-02-24T06:55:20.740Z,1003.87
2023-02-24T06:56:20.674Z,1003.85
2023-02-24T06:57:20.672Z,1003.87
2023-02-24T06:58:20.591Z,1003.82
2023-02-24T06:59:20.598Z,1003.81
2023-02-24T07:00:20.516Z,1003.81
2023-02-24T07:01:20.863Z,1003.79
2023-02-24T07:02:20.452Z,1003.79
2023-02-24T07:03:21.127Z,1003.75
2023-02-24T07:04:20.463Z,1003.76
2023-02-24T07:05:20.320Z,1003.68
2023-02-24T07:06:20.364Z,1003.72
2023-02-24T07:07:20.299Z,1003.74
2023-02-24T07:08:20.214Z,1003.74
2023-02-24T07:09:20.182Z,1003.71
2023-02-24T07:10:20.158Z,1003.68
2023-02-24T07:11:20.407Z,1003.69
2023-02-24T07:12:20.078Z,1003.68
2023-02-24T07:13:20.086Z,1003.72
2023-02-24T07:14:20.007Z,1003.66
2023-02-24T07:15:19.961Z,1003.68
2023-02-24T07:16:19.947Z,1003.65
2023-02-24T07:17:19.907Z,1003.65
2023-02-24T07:18:19.856Z,1003.66
2023-02-24T07:19:19.874Z,1003.65
2023-02-24T07:20:19.778Z,1003.56
2023-02-24T07:21:20.029Z,1003.58
2023-02-24T07:22:19.706Z,1003.58
2023-02-24T07:23:19.674Z,1003.53
2023-02-24T07:24:19.639Z,1003.55
2023-02-24T07:25:19.649Z,1003.56
2023-02-24T07:26:19.578Z,1003.56
2023-02-24T07:27:19.523Z,1003.53
2023-02-24T07:28:19.495Z,1003.53
2023-02-24T07:29:19.462Z,1003.48
2023-02-24T07:30:19.428Z,1003.47
2023-02-24T07:31:19.836Z,1003.42
2023-02-24T07:32:19.499Z,1003.39
2023-02-24T07:33:19.332Z,1003.42
2023-02-24T07:34:19.275Z,1003.37
2023-02-24T07:35:19.231Z,1003.35
2023-02-24T07:36:19.201Z,1003.32
2023-02-24T07:37:19.302Z,1003.31
2023-02-24T07:38:19.132Z,1003.30
2023-02-24T07:39:20.107Z,1003.27
2023-02-24T07:40:19.071Z,1003.29
2023-02-24T07:41:19.280Z,1003.25
2023-02-24T07:42:18.980Z,1003.24
2023-02-24T07:43:18.989Z,1003.29
2023-02-24T07:44:18.931Z,1003.23
2023-02-24T07:45:18.954Z,1003.23
2023-02-24T07:46:18.903Z,1003.19
2023-02-24T07:47:18.800Z,1003.16
2023-02-24T07:48:18.769Z,1003.18
2023-02-24T07:49:18.801Z,1003.12
2023-02-24T07:50:18.694Z,1003.08
2023-02-24T07:51:18.876Z,1003.09
2023-02-24T07:52:18.623Z,1003.03
2023-02-24T07:53:18.579Z,1002.98
2023-02-24T07:54:18.543Z,1002.99
2023-02-24T07:55:18.569Z,1003.00
2023-02-24T07:56:18.466Z,1002.91
2023-02-24T07:57:18.457Z,1002.99
2023-02-24T07:58:18.398Z,1002.90
2023-02-24T07:59:18.359Z,1002.95
2023-02-24T08:00:18.328Z,1002.90
2023-02-24T08:01:18.471Z,1002.91
2023-02-24T08:02:18.356Z,1002.89
2023-02-24T08:03:18.232Z,1002.83
2023-02-24T08:04:18.181Z,1002.84
2023-02-24T08:05:18.175Z,1002.85
2023-02-24T08:06:18.113Z,1002.77
2023-02-24T08:07:18.136Z,1002.76
2023-02-24T08:08:18.032Z,1002.74
2023-02-24T08:09:18.022Z,1002.70
2023-02-24T08:10:17.967Z,1002.69
2023-02-24T08:11:18.177Z,1002.73
2023-02-24T08:12:18.238Z,1002.67
2023-02-24T08:13:17.904Z,1002.63
2023-02-24T08:14:17.821Z,1002.65
2023-02-24T08:15:17.832Z,1002.66
2023-02-24T08:16:17.822Z,1002.63
2023-02-24T08:17:17.712Z,1002.65
2023-02-24T08:18:17.696Z,1002.59
2023-02-24T08:19:17.689Z,1002.61
2023-02-24T08:20:17.605Z,1002.56
2023-02-24T08:21:17.565Z,1002.52
2023-02-24T08:22:17.532Z,1002.49
2023-02-24T08:23:17.501Z,1002.49
2023-02-24T08:24:17.463Z,1002.44
2023-02-24T08:25:17.487Z,1002.42
2023-02-24T08:26:17.407Z,1002.42
2023-02-24T08:27:17.353Z,1002.41
2023-02-24T08:28:17.328Z,1002.40
2023-02-24T08:29:17.282Z,1002.37
2023-02-24T08:30:17.258Z,1002.33
2023-02-24T08:31:17.364Z,1002.37
2023-02-24T08:32:20.334Z,1002.33
2023-02-24T08:33:17.137Z,1002.35
2023-02-24T08:34:17.097Z,1002.32
2023-02-24T08:35:17.095Z,1002.30
2023-02-24T08:36:17.033Z,1002.30
2023-02-24T08:37:17.050Z,1002.30
2023-02-24T08:38:16.949Z,1002.27
2023-02-24T08:39:17.012Z,1002.25
2023-02-24T08:40:16.906Z,1002.23
2023-02-24T08:41:16.845Z,1002.21
2023-02-24T08:42:16.813Z,1002.23
2023-02-24T08:43:16.836Z,1002.19
2023-02-24T08:44:16.740Z,1002.19
2023-02-24T08:45:16.708Z,1002.24
2023-02-24T08:46:16.680Z,1002.18
2023-02-24T08:47:16.642Z,1002.17
2023-02-24T08:48:16.666Z,1002.22
2023-02-24T08:49:16.565Z,1002.21
2023-02-24T08:50:16.533Z,1002.17
2023-02-24T08:51:16.498Z,1002.17
2023-02-24T08:52:16.470Z,1002.12
2023-02-24T08:53:16.414Z,1002.09
2023-02-24T08:54:16.479Z,1002.05
2023-02-24T08:55:16.361Z,1002.00
2023-02-24T08:56:16.315Z,1002.05
2023-02-24T08:57:16.274Z,1002.03
2023-02-24T08:58:16.259Z,1002.00
2023-02-24T08:59:16.219Z,1001.92
2023-02-24T09:00:17.219Z,1001.95
2023-02-24T09:01:16.201Z,1002.00
2023-02-24T09:02:16.110Z,1001.89
2023-02-24T09:03:16.070Z,1001.86
2023-02-24T09:04:16.061Z,1001.92
2023-02-24T09:05:16.037Z,1001.96
2023-02-24T09:06:16.033Z,1001.86
2023-02-24T09:07:15.942Z,1001.82
2023-02-24T09:08:15.902Z,1001.83
2023-02-24T09:09:15.862Z,1001.82
2023-02-24T09:10:15.841Z,1001.86
2023-02-24T09:11:15.841Z,1001.86
2023-02-24T09:12:15.810Z,1001.78
2023-02-24T09:13:15.725Z,1001.81
2023-02-24T09:14:26.201Z,1001.76
2023-02-24T09:15:15.662Z,1001.81
2023-02-24T09:16:15.680Z,1001.75
2023-02-24T09:17:15.593Z,1001.68
2023-02-24T09:18:15.608Z,1001.67
2023-02-24T09:19:15.522Z,1001.66
2023-02-24T09:20:15.470Z,1001.65
2023-02-24T09:21:15.468Z,1001.63
2023-02-24T09:22:21.109Z,1001.65
2023-02-24T09:23:15.419Z,1001.56
2023-02-24T09:24:16.905Z,1001.60
2023-02-24T09:25:15.345Z,1001.55
2023-02-24T09:26:15.322Z,1001.56
2023-02-24T09:27:15.300Z,1001.61
2023-02-24T09:28:15.235Z,1001.60
2023-02-24T09:29:15.158Z,1001.52
2023-02-24T09:30:15.198Z,1001.54
2023-02-24T09:31:15.192Z,1001.50
2023-02-24T09:32:15.200Z,1001.54
2023-02-24T09:33:15.124Z,1001.54
2023-02-24T09:34:14.979Z,1001.50
2023-02-24T09:35:14.943Z,1001.42
2023-02-24T09:36:14.907Z,1001.45
2023-02-24T09:37:14.884Z,1001.36
2023-02-24T09:38:14.842Z,1001.39
2023-02-24T09:39:14.956Z,1001.37
2023-02-24T09:40:14.771Z,1001.35
2023-02-24T09:41:28.775Z,1001.31
2023-02-24T09:42:14.704Z,1001.28
2023-02-24T09:43:14.664Z,1001.31
2023-02-24T09:44:14.620Z,1001.24
2023-02-24T09:45:14.651Z,1001.24
2023-02-24T09:46:15.155Z,1001.21
2023-02-24T09:47:14.544Z,1001.20
2023-02-24T09:48:16.712Z,1001.14
2023-02-24T09:49:14.467Z,1001.21
2023-02-24T09:50:14.498Z,1001.18
2023-02-24T09:51:14.437Z,1001.13
2023-02-24T09:52:14.349Z,1001.16
2023-02-24T09:53:14.331Z,1001.16
2023-02-24T09:54:14.292Z,1001.09
2023-02-24T09:55:14.240Z,1001.10
2023-02-24T09:56:14.222Z,1001.13
2023-02-24T09:57:14.269Z,1001.15
2023-02-24T09:58:14.150Z,1001.13
2023-02-24T09:59:14.102Z,1001.13
2023-02-24T10:00:14.061Z,1001.11
2023-02-24T10:01:14.071Z,1001.11
2023-02-24T10:02:14.071Z,1001.06
2023-02-24T10:03:14.011Z,1001.06
2023-02-24T10:04:20.591Z,1001.07
2023-02-24T10:05:13.892Z,1001.02
2023-02-24T10:06:13.866Z,1000.97
2023-02-24T10:07:13.831Z,1000.98
2023-02-24T10:08:13.792Z,1000.94
2023-02-24T10:09:13.875Z,1000.95
2023-02-24T10:10:13.726Z,1000.94
2023-02-24T10:11:13.678Z,1000.85
2023-02-24T10:12:13.661Z,1000.83
2023-02-24T10:13:13.639Z,1000.90
2023-02-24T10:14:13.626Z,1000.88
2023-02-24T10:15:13.599Z,1000.96
2023-02-24T10:16:13.573Z,1000.87
2023-02-24T10:17:13.482Z,1000.85
2023-02-24T10:18:13.459Z,1000.86
2023-02-24T10:19:13.400Z,1000.91
2023-02-24T10:20:13.422Z,1000.85
2023-02-24T10:21:13.380Z,1000.84
2023-02-24T10:22:13.316Z,1000.85
2023-02-24T10:23:13.288Z,1000.87
2023-02-24T10:24:13.233Z,1000.89
2023-02-24T10:25:13.252Z,1000.88
2023-02-24T10:26:13.163Z,1000.89
2023-02-24T10:27:16.834Z,1000.84
2023-02-24T10:28:13.165Z,1000.78
2023-02-24T10:29:13.055Z,1000.75
2023-02-24T10:30:13.025Z,1000.66
2023-02-24T10:31:13.121Z,1000.71
2023-02-24T10:32:13.190Z,1000.66
2023-02-24T10:33:12.955Z,1000.75
2023-02-24T10:34:12.896Z,1000.66
2023-02-24T10:35:12.843Z,1000.65
2023-02-24T10:36:12.815Z,1000.62
2023-02-24T10:37:26.177Z,1000.68
2023-02-24T10:38:12.741Z,1000.59
2023-02-24T10:39:12.716Z,1000.64
2023-02-24T10:40:12.666Z,1000.59
2023-02-24T10:41:12.633Z,1000.67
2023-02-24T10:42:12.643Z,1000.66
2023-02-24T10:43:12.631Z,1000.64
2023-02-24T10:44:12.533Z,1000.59
2023-02-24T10:45:17.144Z,1000.65
2023-02-24T10:46:12.477Z,1000.64
2023-02-24T10:47:12.491Z,1000.54
2023-02-24T10:48:13.680Z,1000.58
2023-02-24T10:49:12.406Z,1000.61
2023-02-24T10:50:12.337Z,1000.55
2023-02-24T10:51:12.302Z,1000.56
2023-02-24T10:52:12.244Z,1000.55
2023-02-24T10:53:12.223Z,1000.52
2023-02-24T10:54:12.171Z,1000.50
2023-02-24T10:55:12.195Z,1000.63
2023-02-24T10:56:12.108Z,1000.51
2023-02-24T10:57:12.077Z,1000.55
2023-02-24T10:58:12.037Z,1000.43
2023-02-24T10:59:12.040Z,1000.51
2023-02-24T11:00:11.969Z,1000.44
2023-02-24T11:01:12.044Z,1000.47
2023-02-24T11:02:11.907Z,1000.42
2023-02-24T11:03:12.978Z,1000.43
2023-02-24T11:04:11.823Z,1000.45
2023-02-24T11:05:11.792Z,1000.42
2023-02-24T11:06:11.810Z,1000.37
2023-02-24T11:07:11.743Z,1000.39
2023-02-24T11:08:11.682Z,1000.35
2023-02-24T11:09:11.645Z,1000.31
2023-02-24T11:10:11.605Z,1000.32
2023-02-24T11:11:11.575Z,1000.31
2023-02-24T11:12:11.588Z,1000.27
2023-02-24T11:13:11.492Z,1000.22
2023-02-24T11:14:11.459Z,1000.25
2023-02-24T11:15:11.430Z,1000.25
2023-02-24T11:16:11.482Z,1000.18
2023-02-24T11:17:11.351Z,1000.17
2023-02-24T11:18:11.373Z,1000.16
2023-02-24T11:19:11.280Z,1000.09
2023-02-24T11:20:11.255Z,1000.08
2023-02-24T11:21:11.205Z,1000.05
2023-02-24T11:22:11.179Z,1000.04
2023-02-24T11:23:11.142Z,1000.05
2023-02-24T11:24:11.145Z,999.99
2023-02-24T11:25:11.068Z,999.90
2023-02-24T11:26:11.020Z,999.92
2023-02-24T11:27:10.992Z,999.93
2023-02-24T11:28:10.946Z,999.87
2023-02-24T11:29:10.935Z,999.85
2023-02-24T11:30:10.946Z,999.90
2023-02-24T11:31:10.972Z,999.87
2023-02-24T11:32:14.124Z,999.83
2023-02-24T11:33:10.788Z,999.77
2023-02-24T11:34:10.753Z,999.79
2023-02-24T11:35:10.693Z,999.78
2023-02-24T11:36:10.970Z,999.74
2023-02-24T11:37:10.695Z,999.72
2023-02-24T11:38:10.587Z,999.68
2023-02-24T11:39:18.917Z,999.63
2023-02-24T11:40:10.514Z,999.58
2023-02-24T11:41:10.510Z,999.60
2023-02-24T11:42:10.561Z,999.58
2023-02-24T11:43:10.532Z,999.58
2023-02-24T11:44:13.359Z,999.58
2023-02-24T11:45:10.507Z,999.52
2023-02-24T11:46:10.321Z,999.47
2023-02-24T11:47:10.273Z,999.49
2023-02-24T11:48:10.280Z,999.44
2023-02-24T11:49:10.193Z,999.39
2023-02-24T11:50:10.159Z,999.38
2023-02-24T11:51:10.116Z,999.36
2023-02-24T11:52:10.075Z,999.39
2023-02-24T11:53:10.060Z,999.34
2023-02-24T11:54:10.072Z,999.35
2023-02-24T11:55:09.979Z,999.26
2023-02-24T11:56:09.937Z,999.26
2023-02-24T11:57:09.905Z,999.27
2023-02-24T11:58:09.873Z,999.19
2023-02-24T11:59:09.830Z,999.15
2023-02-24T12:00:09.899Z,999.15
2023-02-24T12:01:09.813Z,999.10
2023-02-24T12:02:09.714Z,999.07
2023-02-24T12:03:09.778Z,999.04
2023-02-24T12:04:09.672Z,998.95
2023-02-24T12:05:09.699Z,998.98
2023-02-24T12:06:09.648Z,999.00
2023-02-24T12:07:09.542Z,998.95